Time;durP1;ratioP1;P1;durP2;ratioP2;P2;SDS_P1;SDS_P2;PMS_P1;PMS_P2;Temp;Humidity;BMP_temperature;BMP_pressure;BME280_temperature;BME280_humidity;BME280_pressure;Samples;Min_cycle;Max_cycle;Signal;HPM_P1;HPM_P2
2022/06/02 00:00:05;;;;;;;;;;;;;;;-142.75;100.00;77785.03;5004901;28;19921;-68
2022/06/02 00:02:49;;;;;;;;;;;;;;;-142.75;100.00;77787.00;5025147;28;19979;-69
2022/06/02 00:05:14;;;;;;;;;;;;;;;-142.75;100.00;77787.00;5029552;28;19917;-69
2022/06/02 00:07:46;;;;;;;;;;;;;;;-142.75;100.00;77783.06;5025586;28;19940;-67
2022/06/02 00:10:23;;;;;;;;;;;;;;;-142.75;100.00;77792.91;5025962;28;20013;-67
2022/06/02 00:12:55;;;;;;;;;;;;;;;-142.75;100.00;77792.91;5018453;28;19964;-68
2022/06/02 00:15:26;;;;;;;;;;;;;;;-142.75;100.00;77800.78;5019825;28;20333;-68
2022/06/02 00:18:10;;;;;;;;;;;;;;;-142.75;100.00;77810.63;5024563;28;19925;-70
2022/06/02 00:20:41;;;;;;;;;;;;;;;-142.75;100.00;77810.63;5044474;23;19932;-69
2022/06/02 00:23:06;;;;;;;;;;;;;;;-142.75;100.00;77816.53;5048605;28;19935;-69
2022/06/02 00:25:39;;;;;;;;;;;;;;;-142.75;100.00;77822.44;5051910;28;20318;-69
2022/06/02 00:28:24;;;;;;;;;;;;;;;-142.75;100.00;77826.38;5051616;28;19917;-69
2022/06/02 00:30:54;;;;;;;;;;;;;;;-142.75;100.00;77842.13;5030214;28;19924;-70
2022/06/02 00:33:24;;;;;;;;;;;;;;;-142.75;100.00;77848.03;5051720;28;19916;-69
2022/06/02 00:35:52;;;;;;;;;;;;;;;-142.75;100.00;77853.94;5051632;28;19916;-69
2022/06/02 00:38:37;;;;;;;;;;;;;;;-142.75;100.00;77869.69;5050176;28;19923;-69
2022/06/02 00:41:14;;;;;;;;;;;;;;;-142.75;100.00;77871.66;5051178;28;19928;-69
2022/06/02 00:43:51;;;;;;;;;;;;;;;-142.75;100.00;77877.56;5051555;28;19970;-69
2022/06/02 00:46:35;;;;;;;;;;;;;;;-142.75;100.00;77873.63;5050126;28;19923;-69
2022/06/02 00:49:14;;;;;;;;;;;;;;;-142.75;100.00;77869.69;5050950;28;20398;-69
2022/06/02 00:51:52;;;;;;;;;;;;;;;-142.75;100.00;77875.59;5051350;28;19932;-69
2022/06/02 01:00:07;;;;;;;;;;;;;;;-142.75;100.00;77869.69;5051022;28;19927;-70
2022/06/02 01:02:47;;;;;;;;;;;;;;;-142.75;100.00;77873.63;5051197;28;19917;-69
2022/06/02 01:05:14;;;;;;;;;;;;;;;-142.75;100.00;77869.69;5050968;28;19940;-69
2022/06/02 01:07:45;;;;;;;;;;;;;;;-142.75;100.00;77875.59;5049688;28;19916;-69
2022/06/02 01:10:29;;;;;;;;;;;;;;;-142.75;100.00;77869.69;5051049;28;19916;-71
2022/06/02 01:13:14;;;;;;;;;;;;;;;-142.75;100.00;77877.56;5049592;28;19917;-69
2022/06/02 01:15:39;;;;;;;;;;;;;;;-142.75;100.00;77881.50;5050961;28;19916;-68
2022/06/02 01:18:14;;;;;;;;;;;;;;;-142.75;100.00;77879.53;5050579;28;19924;-69
2022/06/02 01:20:55;;;;;;;;;;;;;;;-142.75;100.00;77879.53;5050543;28;19944;-70
2022/06/02 01:23:26;;;;;;;;;;;;;;;-142.75;100.00;77871.66;5050746;28;20450;-69
2022/06/02 01:26:10;;;;;;;;;;;;;;;-142.75;100.00;77873.63;5051124;28;19917;-69
2022/06/02 01:29:01;;;;;;;;;;;;;;;-142.75;100.00;77881.50;5050408;28;20359;-69
2022/06/02 01:31:48;;;;;;;;;;;;;;;-142.75;100.00;77873.63;5048477;28;19917;-69
2022/06/02 01:34:32;;;;;;;;;;;;;;;-142.75;100.00;77883.47;5051425;28;20432;-69
2022/06/02 01:37:21;;;;;;;;;;;;;;;-142.75;100.00;77891.34;5051146;28;20286;-69
2022/06/02 01:39:55;;;;;;;;;;;;;;;-142.75;100.00;77893.31;5050909;28;20127;-69
2022/06/02 01:42:46;;;;;;;;;;;;;;;-142.75;100.00;77905.13;5051290;28;19917;-69
2022/06/02 01:45:11;;;;;;;;;;;;;;;-142.75;100.00;77913.03;5049062;28;20446;-69
2022/06/02 01:47:38;;;;;;;;;;;;;;;-142.75;100.00;77930.75;5051108;28;19999;-70
2022/06/02 01:50:04;;;;;;;;;;;;;;;-142.75;100.00;77926.81;5050847;28;19917;-69
2022/06/02 01:52:33;;;;;;;;;;;;;;;-142.75;100.00;77920.91;5049816;28;19917;-69
2022/06/02 01:55:21;;;;;;;;;;;;;;;-142.75;100.00;77920.91;5051495;28;20003;-69
2022/06/02 01:58:01;;;;;;;;;;;;;;;-142.75;100.00;77924.84;5050872;28;19921;-69
2022/06/02 02:00:30;;;;;;;;;;;;;;;-142.75;100.00;77922.88;5051052;28;20321;-69
2022/06/02 02:03:04;;;;;;;;;;;;;;;-142.75;100.00;77916.97;5051130;28;20299;-69
2022/06/02 02:05:38;;;;;;;;;;;;;;;-142.75;100.00;77907.09;5050971;28;19940;-69
2022/06/02 02:08:06;;;;;;;;;;;;;;;-142.75;100.00;77895.28;5049356;28;20015;-69
2022/06/02 02:10:50;;;;;;;;;;;;;;;-142.75;100.00;77893.31;5051170;28;20268;-69
2022/06/02 02:13:15;;;;;;;;;;;;;;;-142.75;100.00;77891.34;5049599;28;19959;-69
2022/06/02 02:15:56;;;;;;;;;;;;;;;-142.75;100.00;77901.19;5050855;28;19967;-68
2022/06/02 02:18:31;;;;;;;;;;;;;;;-142.75;100.00;77907.09;5050614;28;19925;-69
2022/06/02 02:20:58;;;;;;;;;;;;;;;-142.75;100.00;77915.00;5049925;28;20289;-69
2022/06/02 02:23:30;;;;;;;;;;;;;;;-142.75;100.00;77913.03;5050747;28;19979;-70
2022/06/02 02:26:01;;;;;;;;;;;;;;;-142.75;100.00;77909.06;5050714;28;20020;-68
2022/06/02 02:28:27;;;;;;;;;;;;;;;-142.75;100.00;77911.06;5050437;28;19917;-69
2022/06/02 02:31:11;;;;;;;;;;;;;;;-142.75;100.00;77905.13;5050678;28;20378;-69
2022/06/02 02:33:44;;;;;;;;;;;;;;;-142.75;100.00;77899.22;5050664;28;19917;-70
2022/06/02 02:36:20;;;;;;;;;;;;;;;-142.75;100.00;77893.31;5050687;28;19916;-69
2022/06/02 02:38:51;;;;;;;;;;;;;;;-142.75;100.00;77883.47;5050649;28;19921;-69
2022/06/02 02:41:28;;;;;;;;;;;;;;;-142.75;100.00;77877.56;5050557;28;19924;-69
2022/06/02 02:44:02;;;;;;;;;;;;;;;-142.75;100.00;77873.63;5053663;28;19917;-69
2022/06/02 02:46:30;;;;;;;;;;;;;;;-142.75;100.00;77871.66;5054657;28;19916;-69
2022/06/02 02:49:10;;;;;;;;;;;;;;;-142.75;100.00;77875.59;5054187;28;19939;-69
2022/06/02 02:51:55;;;;;;;;;;;;;;;-142.75;100.00;77889.38;5054277;28;19932;-70
2022/06/02 02:54:29;;;;;;;;;;;;;;;-142.75;100.00;77889.38;5054212;28;19921;-69
2022/06/02 02:56:57;;;;;;;;;;;;;;;-142.75;100.00;77899.22;5054279;28;19921;-69
2022/06/02 02:59:23;;;;;;;;;;;;;;;-142.75;100.00;77903.16;5053854;28;20025;-69
2022/06/02 03:02:04;;;;;;;;;;;;;;;-142.75;100.00;77903.16;5054094;28;20355;-69
2022/06/02 03:04:41;;;;;;;;;;;;;;;-142.75;100.00;77901.19;5053093;28;19952;-69
2022/06/02 03:07:06;;;;;;;;;;;;;;;-142.75;100.00;77905.13;5054292;28;19916;-69
2022/06/02 03:09:38;;;;;;;;;;;;;;;-142.75;100.00;77897.25;5053141;28;20393;-69
2022/06/02 03:12:03;;;;;;;;;;;;;;;-142.75;100.00;77903.16;5053142;28;20455;-69
2022/06/02 03:14:36;;;;;;;;;;;;;;;-142.75;100.00;77909.06;5053223;28;19944;-70
2022/06/02 03:17:07;;;;;;;;;;;;;;;-142.75;100.00;77911.06;5052898;28;19924;-68
2022/06/02 03:19:43;;;;;;;;;;;;;;;-142.75;100.00;77916.97;5052714;28;20016;-69
2022/06/02 03:22:24;;;;;;;;;;;;;;;-142.75;100.00;77909.06;5052885;28;20328;-69
2022/06/02 03:24:49;;;;;;;;;;;;;;;-142.75;100.00;77913.03;5053071;28;20046;-69
2022/06/02 03:27:14;;;;;;;;;;;;;;;-142.75;100.00;77916.97;5052956;28;20003;-68
2022/06/02 03:29:39;;;;;;;;;;;;;;;-142.75;100.00;77928.78;5052655;28;19924;-68
2022/06/02 03:32:05;;;;;;;;;;;;;;;-142.75;100.00;77932.72;5051327;28;19923;-69
2022/06/02 03:34:50;;;;;;;;;;;;;;;-142.75;100.00;77932.72;5053032;28;19917;-69
2022/06/02 03:37:26;;;;;;;;;;;;;;;-142.75;100.00;77938.63;5052223;28;19924;-68
2022/06/02 03:39:57;;;;;;;;;;;;;;;-142.75;100.00;77944.53;5052296;28;20007;-69
2022/06/02 03:42:31;;;;;;;;;;;;;;;-142.75;100.00;77952.41;5052583;28;20005;-68
2022/06/02 03:44:57;;;;;;;;;;;;;;;-142.75;100.00;77958.31;5052753;28;20363;-69
2022/06/02 03:47:35;;;;;;;;;;;;;;;-142.75;100.00;77960.28;5052623;28;20015;-68
2022/06/02 03:50:01;;;;;;;;;;;;;;;-142.75;100.00;77979.97;5051072;28;19917;-68
2022/06/02 03:52:32;;;;;;;;;;;;;;;-142.75;100.00;77976.03;5052407;28;19917;-69
2022/06/02 03:55:23;;;;;;;;;;;;;;;-142.75;100.00;77983.91;5052595;28;20306;-69
2022/06/02 03:58:00;;;;;;;;;;;;;;;-142.75;100.00;77991.78;5052525;28;20313;-68
2022/06/02 04:00:29;;;;;;;;;;;;;;;-142.75;100.00;77995.72;5052367;28;19920;-69
2022/06/02 04:02:55;;;;;;;;;;;;;;;-142.75;100.00;78007.53;5051080;28;19917;-68
2022/06/02 04:05:32;;;;;;;;;;;;;;;-142.75;100.00;78015.41;5052152;28;19928;-70
2022/06/02 04:08:05;;;;;;;;;;;;;;;-142.75;100.00;78019.34;5052703;28;20051;-68
2022/06/02 04:10:44;;;;;;;;;;;;;;;-142.75;100.00;78009.50;5052209;28;19917;-68
2022/06/02 04:16:11;;;;;;;;;;;;;;;-142.75;100.00;78003.59;5052083;28;19963;-68
2022/06/02 04:18:39;;;;;;;;;;;;;;;-142.75;100.00;78003.59;5051751;28;19924;-68
2022/06/02 04:21:15;;;;;;;;;;;;;;;-142.75;100.00;77987.84;5051461;28;19927;-68
2022/06/02 04:23:40;;;;;;;;;;;;;;;-142.75;100.00;77972.09;5051861;28;19917;-69
2022/06/02 04:26:05;;;;;;;;;;;;;;;-142.75;100.00;77960.28;5051915;28;19924;-69
2022/06/02 04:28:34;;;;;;;;;;;;;;;-142.75;100.00;77944.53;5051414;28;19917;-68
2022/06/02 04:31:13;;;;;;;;;;;;;;;-142.75;100.00;77928.78;5051689;28;19999;-69
2022/06/02 04:33:51;;;;;;;;;;;;;;;-142.75;100.00;77920.91;5051800;28;19928;-68
2022/06/02 04:36:26;;;;;;;;;;;;;;;-142.75;100.00;77907.09;5050209;28;19924;-69
2022/06/02 04:38:51;;;;;;;;;;;;;;;-142.75;100.00;77899.22;5050695;28;19916;-69
2022/06/02 04:41:20;;;;;;;;;;;;;;;-142.75;100.00;77889.38;5051443;28;19935;-68
2022/06/02 04:43:52;;;;;;;;;;;;;;;-142.75;100.00;77891.34;5051567;28;20058;-69
2022/06/02 04:46:42;;;;;;;;;;;;;;;-142.75;100.00;77877.56;5051638;28;19917;-69
2022/06/02 04:49:16;;;;;;;;;;;;;;;-142.75;100.00;77869.69;5050957;28;19917;-69
2022/06/02 04:51:44;;;;;;;;;;;;;;;-142.75;100.00;77863.78;5051549;28;19971;-69
2022/06/02 04:54:15;;;;;;;;;;;;;;;-142.75;100.00;77853.94;5051417;28;20386;-69
2022/06/02 04:56:47;;;;;;;;;;;;;;;-142.75;100.00;77853.94;5051371;28;19940;-69
2022/06/02 04:59:16;;;;;;;;;;;;;;;-142.75;100.00;77832.28;5050740;28;19962;-68
2022/06/02 05:01:47;;;;;;;;;;;;;;;-142.75;100.00;77836.22;5051251;28;19924;-69
2022/06/02 05:04:22;;;;;;;;;;;;;;;-142.75;100.00;77828.34;5051038;28;19916;-69
2022/06/02 05:06:53;;;;;;;;;;;;;;;-142.75;100.00;77820.47;5050697;28;19917;-69
2022/06/02 05:09:26;;;;;;;;;;;;;;;-142.75;100.00;77810.63;5051263;28;19920;-69
2022/06/02 05:11:57;;;;;;;;;;;;;;;-142.75;100.00;77802.75;5049649;28;19917;-69
2022/06/02 05:14:29;;;;;;;;;;;;;;;-142.75;100.00;77788.97;5051061;28;20271;-68
2022/06/02 05:17:07;;;;;;;;;;;;;;;-142.75;100.00;77790.94;5051074;28;19923;-69
2022/06/02 05:19:32;;;;;;;;;;;;;;;-142.75;100.00;77777.16;5050341;28;19967;-69
2022/06/02 05:22:07;;;;;;;;;;;;;;;-142.75;100.00;77763.38;5050566;28;19960;-69
2022/06/02 05:24:35;;;;;;;;;;;;;;;-142.75;100.00;77749.59;5050925;28;20362;-69
2022/06/02 05:27:00;;;;;;;;;;;;;;;-142.75;100.00;77743.69;5050905;28;19924;-69
2022/06/02 05:29:25;;;;;;;;;;;;;;;-142.75;100.00;77727.94;5050588;28;19917;-68
2022/06/02 05:31:58;;;;;;;;;;;;;;;-142.75;100.00;77712.16;5049336;28;20298;-69
2022/06/02 05:34:26;;;;;;;;;;;;;;;-142.75;100.00;77702.31;5050426;28;20399;-68
2022/06/02 05:37:10;;;;;;;;;;;;;;;-142.75;100.00;77688.53;5050446;28;19916;-69
2022/06/02 05:39:58;;;;;;;;;;;;;;;-142.75;100.00;77670.81;5050017;28;20382;-70
2022/06/02 05:42:36;;;;;;;;;;;;;;;-142.75;100.00;77653.09;5049880;28;19917;-69
2022/06/02 05:45:11;;;;;;;;;;;;;;;-142.75;100.00;77641.28;5049706;28;19917;-71
2022/06/02 05:47:55;;;;;;;;;;;;;;;-142.75;100.00;77617.66;5049679;28;20340;-69
2022/06/02 05:50:39;;;;;;;;;;;;;;;-142.75;100.00;77596.00;5049486;28;19924;-70
2022/06/02 05:53:20;;;;;;;;;;;;;;;-142.75;100.00;77582.22;5049505;28;19932;-67
2022/06/02 05:55:52;;;;;;;;;;;;;;;-142.75;100.00;77566.47;5049844;28;19917;-69
2022/06/02 05:58:21;;;;;;;;;;;;;;;-142.75;100.00;77550.72;5048070;28;19971;-69
2022/06/02 06:00:53;;;;;;;;;;;;;;;-142.75;100.00;77534.97;5049432;28;19928;-69
2022/06/02 06:03:36;;;;;;;;;;;;;;;-142.75;100.00;77523.16;5049576;28;19927;-69
2022/06/02 06:06:04;;;;;;;;;;;;;;;-142.75;100.00;77509.38;5050241;28;19917;-69
2022/06/02 06:08:45;;;;;;;;;;;;;;;-142.75;100.00;77495.59;5050712;28;19978;-69
2022/06/02 06:11:20;;;;;;;;;;;;;;;-142.75;100.00;77487.72;5050306;28;20290;-69
2022/06/02 06:13:46;;;;;;;;;;;;;;;-142.75;100.00;77473.94;5050127;28;19931;-69
2022/06/02 06:16:29;;;;;;;;;;;;;;;-142.75;100.00;77458.16;5050062;28;19920;-69
2022/06/02 06:19:06;;;;;;;;;;;;;;;-142.75;100.00;77450.28;5053685;28;19963;-69
2022/06/02 06:21:31;;;;;;;;;;;;;;;-142.75;100.00;77444.38;5057570;23;19932;-67
2022/06/02 06:24:03;;;;;;;;;;;;;;;-142.75;100.00;77416.81;5004304;28;20380;-68
2022/06/02 06:26:52;;;;;;;;;;;;;;;-142.75;100.00;77403.03;5015433;28;19917;-69
2022/06/02 06:29:43;;;;;;;;;;;;;;;-142.75;100.00;77408.94;5022793;28;20363;-68
2022/06/02 06:32:08;;;;;;;;;;;;;;;-142.75;100.00;77397.13;5017932;28;19928;-68
2022/06/02 06:34:42;;;;;;;;;;;;;;;-142.75;100.00;77401.06;5015237;28;19952;-68
2022/06/02 06:37:13;;;;;;;;;;;;;;;-142.75;100.00;77361.69;5014797;28;20391;-68
2022/06/02 06:39:58;;;;;;;;;;;;;;;-142.75;100.00;77340.03;5014864;28;19952;-68
2022/06/02 06:42:26;;;;;;;;;;;;;;;-142.75;100.00;77351.84;4997417;28;19917;-68
2022/06/02 06:45:03;;;;;;;;;;;;;;;-142.75;100.00;77353.81;5014940;28;19921;-68
2022/06/02 06:47:42;;;;;;;;;;;;;;;-142.75;100.00;77371.53;5004711;28;19976;-68
2022/06/02 06:50:16;;;;;;;;;;;;;;;-142.75;100.00;77395.16;5015236;28;20357;-68
2022/06/02 06:53:00;;;;;;;;;;;;;;;-142.75;100.00;77420.75;5013070;28;19925;-68
2022/06/02 06:55:44;;;;;;;;;;;;;;;-142.75;100.00;77389.25;5014901;28;20346;-68
2022/06/02 06:58:09;;;;;;;;;;;;;;;-142.75;100.00;77365.63;4997000;28;19917;-68
2022/06/02 07:00:39;;;;;;;;;;;;;;;-142.75;100.00;77324.28;5014804;28;19948;-68
2022/06/02 07:03:16;;;;;;;;;;;;;;;-142.75;100.00;77316.41;5013894;28;20391;-68
2022/06/02 07:05:46;;;;;;;;;;;;;;;-142.75;100.00;77332.16;5014762;28;19932;-68
2022/06/02 07:08:14;;;;;;;;;;;;;;;-142.75;100.00;77357.75;5014485;28;19917;-69
2022/06/02 07:10:58;;;;;;;;;;;;;;;-142.75;100.00;77383.34;5014586;28;20055;-70
2022/06/02 07:13:35;;;;;;;;;;;;;;;-142.75;100.00;77393.19;4996962;28;19941;-71
2022/06/02 07:16:03;;;;;;;;;;;;;;;-142.75;100.00;77397.13;5014670;28;19918;-68
2022/06/02 07:18:58;;;;;;;;;;;;;;;-142.75;100.00;77357.75;5013107;28;19918;-69
2022/06/02 07:21:29;;;;;;;;;;;;;;;-142.75;100.00;77308.53;4982047;28;19921;-68
2022/06/02 07:24:27;;;;;;;;;;;;;;;-142.75;100.00;77282.94;5014346;28;20434;-70
2022/06/02 07:26:52;;;;;;;;;;;;;;;-142.75;100.00;77235.69;4973951;28;19921;-68
2022/06/02 07:29:17;;;;;;;;;;;;;;;-142.75;100.00;77255.38;5004278;28;20375;-68
2022/06/02 07:32:02;;;;;;;;;;;;;;;-142.75;100.00;77251.44;5003189;28;19917;-68
2022/06/02 07:34:30;;;;;;;;;;;;;;;-142.75;100.00;77214.03;5014127;28;20016;-68
2022/06/02 07:37:29;;;;;;;;;;;;;;;-142.75;100.00;77178.59;5012866;28;20406;-69
2022/06/02 07:40:14;;;;;;;;;;;;;;;-142.75;100.00;77158.91;4980763;28;19921;-68
2022/06/02 07:42:42;;;;;;;;;;;;;;;-142.75;100.00;77141.19;5002356;28;20001;-68
2022/06/02 07:45:18;;;;;;;;;;;;;;;-142.75;100.00;77117.56;5003066;28;20406;-68
2022/06/02 07:48:02;;;;;;;;;;;;;;;-142.75;100.00;77099.84;5013070;28;19917;-68
2022/06/02 07:50:32;;;;;;;;;;;;;;;-142.75;100.00;77066.38;5013237;28;19925;-68
2022/06/02 07:53:17;;;;;;;;;;;;;;;-142.75;100.00;77036.84;5013841;28;19918;-68
2022/06/02 07:55:42;;;;;;;;;;;;;;;-142.75;100.00;76983.69;5013730;28;19917;-68
2022/06/02 07:58:21;;;;;;;;;;;;;;;-142.75;100.00;76999.44;5013675;28;19918;-69
2022/06/02 08:00:52;;;;;;;;;;;;;;;-142.75;100.00;76985.66;5013644;28;19925;-68
2022/06/02 08:03:17;;;;;;;;;;;;;;;-142.75;100.00;76940.38;5013827;28;20244;-68
2022/06/02 08:06:01;;;;;;;;;;;;;;;-142.75;100.00;76962.03;5013572;28;19917;-68
2022/06/02 08:08:44;;;;;;;;;;;;;;;-142.75;100.00;76934.47;5013227;28;19963;-68
2022/06/02 08:11:12;;;;;;;;;;;;;;;-142.75;100.00;76948.25;5013409;28;19918;-69
2022/06/02 08:13:44;;;;;;;;;;;;;;;-142.75;100.00;76936.44;5013646;28;19925;-69
2022/06/02 08:16:19;;;;;;;;;;;;;;;-142.75;100.00;76930.53;5013302;28;20380;-68
2022/06/02 08:18:48;;;;;;;;;;;;;;;-142.75;100.00;76928.56;5012024;28;20000;-70
2022/06/02 08:21:36;;;;;;;;;;;;;;;-142.75;100.00;76904.94;5012975;28;20316;-68
2022/06/02 08:24:20;;;;;;;;;;;;;;;-142.75;100.00;76920.69;4987898;28;19979;-69
2022/06/02 08:26:58;;;;;;;;;;;;;;;-142.75;100.00;76877.38;4995802;28;20016;-68
2022/06/02 08:29:38;;;;;;;;;;;;;;;-142.75;100.00;76859.66;5012373;28;19971;-70
2022/06/02 08:32:10;;;;;;;;;;;;;;;-142.75;100.00;76814.38;5001364;28;19929;-72
2022/06/02 08:34:35;;;;;;;;;;;;;;;-142.75;100.00;76775.03;5013092;28;19956;-69
2022/06/02 08:37:00;;;;;;;;;;;;;;;-142.75;100.00;76790.78;4995420;28;20442;-69
2022/06/02 08:39:25;;;;;;;;;;;;;;;-142.75;100.00;76794.69;4994978;28;19971;-69
2022/06/02 08:42:00;;;;;;;;;;;;;;;-142.75;100.00;76800.63;4994804;28;19956;-69
2022/06/02 08:44:28;;;;;;;;;;;;;;;-142.75;100.00;76773.06;4975694;28;20056;-68
2022/06/02 08:46:56;;;;;;;;;;;;;;;-142.75;100.00;76761.25;5012294;28;20414;-68
2022/06/02 08:49:21;;;;;;;;;;;;;;;-142.75;100.00;76755.34;5002964;28;20426;-68
2022/06/02 08:52:05;;;;;;;;;;;;;;;-142.75;100.00;76777.00;4994582;28;19921;-68
2022/06/02 08:54:33;;;;;;;;;;;;;;;-142.75;99.93;76778.97;4993925;28;19917;-68
2022/06/02 08:56:58;;;;;;;;;;;;;;;-142.75;100.00;76757.31;5012635;28;19928;-69
2022/06/02 08:59:31;;;;;;;;;;;;;;;-142.75;100.00;76757.31;5012144;28;19917;-69
2022/06/02 09:02:14;;;;;;;;;;;;;;;-142.75;100.00;76729.75;5012371;28;20391;-69
2022/06/02 09:04:39;;;;;;;;;;;;;;;-142.75;100.00;76727.78;5002343;28;19981;-69
2022/06/02 09:07:39;;;;;;;;;;;;;;;-142.75;98.56;76708.09;5001027;28;20410;-69
2022/06/02 09:10:23;;;;;;;;;;;;;;;-142.75;88.55;76727.78;5012040;28;19925;-69
2022/06/02 09:12:50;;;;;;;;;;;;;;;-142.75;93.50;76749.44;5012711;28;19918;-69
2022/06/02 09:15:37;;;;;;;;;;;;;;;-142.75;88.19;76712.03;5012347;28;19917;-69
2022/06/02 09:18:24;;;;;;;;;;;;;;;-142.75;88.36;76688.41;5012235;28;19918;-69
2022/06/02 09:20:50;;;;;;;;;;;;;;;-142.75;86.16;76708.09;5005188;28;20012;-68
2022/06/02 09:23:15;;;;;;;;;;;;;;;-142.75;82.74;76700.22;5001761;28;20403;-69
2022/06/02 09:25:52;;;;;;;;;;;;;;;-142.75;84.24;76729.75;4996993;28;19917;-69
2022/06/02 09:28:47;;;;;;;;;;;;;;;-142.75;84.23;76717.94;5003922;28;19925;-69
2022/06/02 09:31:22;;;;;;;;;;;;;;;-142.75;87.01;76710.06;4984793;28;20004;-69
2022/06/02 09:34:07;;;;;;;;;;;;;;;-142.75;90.86;76717.94;5011066;28;19917;-68
2022/06/02 09:36:42;;;;;;;;;;;;;;;-142.75;90.29;76670.69;4994444;28;19951;-70
2022/06/02 09:39:13;;;;;;;;;;;;;;;-142.75;91.57;76662.81;5011486;28;19925;-68
2022/06/02 09:41:52;;;;;;;;;;;;;;;-142.75;95.00;76631.31;4994157;28;20217;-68
2022/06/02 09:44:19;;;;;;;;;;;;;;;-142.75;86.20;76625.41;5011924;28;19940;-68
2022/06/02 09:46:45;;;;;;;;;;;;;;;-142.75;84.66;76593.91;5011822;28;19917;-69
2022/06/02 09:49:10;;;;;;;;;;;;;;;-142.75;88.18;76588.00;5011515;28;20012;-68
2022/06/02 09:51:50;;;;;;;;;;;;;;;-142.75;84.95;76597.84;5011743;28;19961;-68
2022/06/02 09:54:31;;;;;;;;;;;;;;;-142.75;70.31;76588.00;5011868;28;19921;-66
2022/06/02 10:00:12;;;;;;;;;;;;;;;-142.75;63.60;76605.72;5010282;28;19929;-69
2022/06/02 10:02:46;;;;;;;;;;;;;;;-142.75;66.36;76584.06;4994092;28;19925;-68
2022/06/02 10:05:20;;;;;;;;;;;;;;;-142.75;64.72;76595.88;5010698;28;19924;-68
2022/06/02 10:07:48;;;;;;;;;;;;;;;-142.75;64.97;76609.66;4993170;28;19940;-68
2022/06/02 10:10:23;;;;;;;;;;;;;;;-142.75;60.27;76589.97;5010489;28;19932;-68
2022/06/02 10:13:07;;;;;;;;;;;;;;;-142.75;60.94;76578.16;5011069;28;19924;-68
2022/06/02 10:15:35;;;;;;;;;;;;;;;-142.75;57.98;76601.78;5009737;28;20391;-68
2022/06/02 10:18:12;;;;;;;;;;;;;;;-142.75;60.25;76562.41;4995091;28;19918;-68
2022/06/02 10:20:40;;;;;;;;;;;;;;;-142.75;65.43;76538.78;5010258;28;20399;-68
2022/06/02 10:23:23;;;;;;;;;;;;;;;-142.75;62.83;76519.13;5011213;28;19925;-68
2022/06/02 10:25:49;;;;;;;;;;;;;;;-142.75;63.08;76536.84;4992750;28;19918;-68
2022/06/02 10:28:14;;;;;;;;;;;;;;;-142.75;69.10;76497.47;5011523;28;20075;-69
2022/06/02 10:30:51;;;;;;;;;;;;;;;-142.75;67.11;76505.34;5011320;28;19924;-68
2022/06/02 10:33:16;;;;;;;;;;;;;;;-142.75;67.04;76477.78;4992991;28;20000;-69
2022/06/02 10:36:16;;;;;;;;;;;;;;;-142.75;65.50;76538.78;5011255;28;20004;-68
2022/06/02 10:38:44;;;;;;;;;;;;;;;-142.75;68.99;76546.66;5011087;28;19963;-68
2022/06/02 10:41:10;;;;;;;;;;;;;;;-142.75;66.98;76552.56;5011276;28;19922;-68
2022/06/02 10:43:54;;;;;;;;;;;;;;;-142.75;60.97;76542.72;5011552;28;20012;-68
2022/06/02 10:46:31;;;;;;;;;;;;;;;-142.75;58.05;76542.72;5006950;28;19917;-70
2022/06/02 10:49:15;;;;;;;;;;;;;;;-142.75;63.51;76507.31;5010961;28;19990;-69
2022/06/02 10:51:52;;;;;;;;;;;;;;;-142.75;61.56;76538.78;4979671;28;20362;-69
2022/06/02 10:54:23;;;;;;;;;;;;;;;-142.75;64.73;76491.56;5011015;28;19926;-69
2022/06/02 10:57:06;;;;;;;;;;;;;;;-142.75;60.82;76467.94;5011192;28;19940;-69
2022/06/02 10:59:46;;;;;;;;;;;;;;;-142.75;61.42;76438.41;5007419;28;19924;-69
2022/06/02 11:02:30;;;;;;;;;;;;;;;-142.75;59.93;76436.44;5010835;28;19984;-69
2022/06/02 11:05:26;;;;;;;;;;;;;;;-142.75;67.22;76452.19;5001462;28;20290;-69
2022/06/02 11:08:10;;;;;;;;;;;;;;;-142.75;63.00;76444.31;5013860;28;19924;-70
2022/06/02 11:10:38;;;;;;;;;;;;;;;-142.75;60.55;76471.88;5014968;28;20383;-68
2022/06/02 11:13:22;;;;;;;;;;;;;;;-142.75;59.80;76450.22;5014859;28;20000;-69
2022/06/02 11:15:56;;;;;;;;;;;;;;;-142.75;67.38;76465.97;5014883;28;20000;-68
2022/06/02 11:18:36;;;;;;;;;;;;;;;-142.75;59.57;76469.91;5014274;28;19921;-69
2022/06/02 11:21:20;;;;;;;;;;;;;;;-142.75;63.20;76471.88;5014498;28;19922;-69
2022/06/02 11:23:48;;;;;;;;;;;;;;;-142.75;68.60;76491.56;5014541;28;19922;-72
2022/06/02 11:26:32;;;;;;;;;;;;;;;-142.75;62.18;76542.72;5014292;28;20000;-69
2022/06/02 11:29:16;;;;;;;;;;;;;;;-142.75;66.09;76527.00;4997385;28;19918;-69
2022/06/02 11:31:53;;;;;;;;;;;;;;;-142.75;67.30;76491.56;5013478;28;19972;-69
2022/06/02 11:34:18;;;;;;;;;;;;;;;-142.75;60.87;76519.13;4996559;28;20276;-69
2022/06/02 11:36:47;;;;;;;;;;;;;;;-142.75;65.12;76534.84;5014189;28;19925;-69
2022/06/02 11:39:21;;;;;;;;;;;;;;;-142.75;63.26;76515.19;5013730;28;20322;-69
2022/06/02 11:41:58;;;;;;;;;;;;;;;-142.75;59.25;76530.91;5014065;28;20299;-69
2022/06/02 11:44:23;;;;;;;;;;;;;;;-142.75;60.66;76572.25;5013942;28;19941;-69
2022/06/02 11:47:03;;;;;;;;;;;;;;;-142.75;59.60;76601.78;5013980;28;20387;-69
2022/06/02 11:49:55;;;;;;;;;;;;;;;-142.75;60.59;76564.38;5013548;28;19941;-68
2022/06/02 11:52:59;;;;;;;;;;;;;;;-142.75;59.85;76591.94;4996158;28;20008;-68
2022/06/02 11:55:30;;;;;;;;;;;;;;;-142.75;59.87;76574.22;4952922;29;19918;-68
2022/06/02 11:57:56;;;;;;;;;;;;;;;-142.75;61.61;76589.97;4952669;29;19934;-67
2022/06/02 12:00:33;;;;;;;;;;;;;;;-142.75;62.41;76586.03;4982816;28;19925;-68
2022/06/02 12:03:14;;;;;;;;;;;;;;;-142.75;59.44;76566.34;4997909;28;20026;-70
2022/06/02 12:06:00;;;;;;;;;;;;;;;-142.75;58.84;76576.19;5013118;28;20391;-68
2022/06/02 12:08:49;;;;;;;;;;;;;;;-142.75;58.45;76552.56;5013033;28;19917;-68
2022/06/02 12:11:14;;;;;;;;;;;;;;;-142.75;60.74;76546.66;5013339;28;19960;-68
2022/06/02 12:13:58;;;;;;;;;;;;;;;-142.75;59.44;76542.72;5013225;28;19987;-69
2022/06/02 12:16:26;;;;;;;;;;;;;;;-142.75;61.95;76525.03;4992486;28;20392;-68
2022/06/02 12:18:53;;;;;;;;;;;;;;;-142.75;58.17;76505.34;4993071;28;20284;-68
2022/06/02 12:21:18;;;;;;;;;;;;;;;-142.75;57.88;76479.75;5033533;23;19925;-71
2022/06/02 12:23:58;;;;;;;;;;;;;;;-142.75;56.92;76511.25;5030850;28;20406;-71
2022/06/02 12:26:26;;;;;;;;;;;;;;;-142.75;54.89;76525.03;5032672;28;19996;-71
2022/06/02 12:28:54;;;;;;;;;;;;;;;-142.75;51.94;76505.34;5033004;28;19924;-71
2022/06/02 12:31:39;;;;;;;;;;;;;;;-142.75;55.50;76483.69;5032874;28;19924;-70
2022/06/02 12:34:13;;;;;;;;;;;;;;;-142.75;53.79;76528.97;5032333;28;19917;-71
2022/06/02 12:36:44;;;;;;;;;;;;;;;-142.75;56.24;76566.34;5032843;28;19917;-71
2022/06/02 12:39:09;;;;;;;;;;;;;;;-142.75;55.80;76538.78;5032436;28;19960;-71
2022/06/02 12:41:56;;;;;;;;;;;;;;;-142.75;54.85;76530.91;5032285;28;19971;-71
2022/06/02 12:44:38;;;;;;;;;;;;;;;-142.75;55.28;76517.16;5032557;28;19917;-71
2022/06/02 12:47:21;;;;;;;;;;;;;;;-142.75;54.13;76527.00;5032936;28;19921;-71
2022/06/02 12:49:52;;;;;;;;;;;;;;;-142.75;55.15;76530.91;5031967;28;19932;-71
2022/06/02 12:52:18;;;;;;;;;;;;;;;-142.75;58.55;76501.41;5032284;28;19925;-70
2022/06/02 12:54:47;;;;;;;;;;;;;;;-142.75;61.70;76499.44;5032319;28;20413;-71
2022/06/02 12:57:19;;;;;;;;;;;;;;;-142.75;64.19;76515.19;5032212;28;20009;-71
2022/06/02 12:59:47;;;;;;;;;;;;;;;-142.75;64.76;76507.31;5031907;28;19971;-71
2022/06/02 13:02:22;;;;;;;;;;;;;;;-142.75;62.99;76475.81;5031880;28;19917;-70
2022/06/02 13:04:50;;;;;;;;;;;;;;;-142.75;58.45;76487.63;5014427;28;19955;-70
2022/06/02 13:07:28;;;;;;;;;;;;;;;-142.75;56.08;76515.19;5031864;28;19971;-70
2022/06/02 13:10:08;;;;;;;;;;;;;;;-142.75;61.63;76523.06;5031772;28;19917;-70